createdAt,value
2019-04-14T00:01:41.269Z,69.97
2019-04-14T00:04:31.363Z,68.20
2019-04-14T00:07:01.447Z,62.10
2019-04-14T00:09:31.489Z,64.57
2019-04-14T00:12:02.100Z,65.00
2019-04-14T00:14:31.543Z,63.93
2019-04-14T00:17:00.684Z,60.20
2019-04-14T00:19:30.635Z,58.43
2019-04-14T00:22:01.308Z,60.20
2019-04-14T00:24:31.319Z,59.47
2019-04-14T00:27:00.388Z,59.40
2019-04-14T00:29:30.405Z,60.20
2019-04-14T00:32:00.899Z,55.97
2019-04-14T00:34:46.295Z,57.80
2019-04-14T00:37:49.651Z,62.37
2019-04-14T00:40:31.556Z,54.03
2019-04-14T00:43:22.570Z,55.47
2019-04-14T00:46:05.836Z,55.77
2019-04-14T00:48:35.071Z,52.93
2019-04-14T00:51:04.859Z,51.37
2019-04-14T00:53:33.967Z,54.03
2019-04-14T00:56:03.977Z,51.53
2019-04-14T00:58:34.284Z,55.17
2019-04-14T01:01:04.803Z,53.43
2019-04-14T01:03:35.088Z,54.83
2019-04-14T01:06:05.434Z,53.77
2019-04-14T01:08:35.724Z,50.90
2019-04-14T01:11:05.294Z,50.37
2019-04-14T01:13:35.401Z,51.30
2019-04-14T01:16:11.525Z,50.00
2019-04-14T01:18:36.396Z,49.97
2019-04-14T01:21:08.984Z,48.77
2019-04-14T01:23:39.085Z,51.70
2019-04-14T01:26:11.785Z,48.57
2019-04-14T01:28:41.881Z,49.97
2019-04-14T01:31:11.979Z,50.50
2019-04-14T01:33:42.332Z,51.27
2019-04-14T01:36:12.663Z,50.47
2019-04-14T01:38:45.055Z,48.57
2019-04-14T01:41:14.932Z,48.83
2019-04-14T01:43:45.170Z,44.83
2019-04-14T01:46:19.673Z,50.07
2019-04-14T01:48:46.019Z,50.73
2019-04-14T01:51:28.866Z,47.67
2019-04-14T01:54:17.129Z,48.30
2019-04-14T01:57:05.299Z,46.77
2019-04-14T01:59:34.853Z,46.33
2019-04-14T02:02:05.441Z,43.90
2019-04-14T02:04:35.502Z,46.43
2019-04-14T02:07:05.822Z,45.33
2019-04-14T02:09:35.757Z,41.67
2019-04-14T02:12:06.273Z,42.57
2019-04-14T02:14:36.467Z,41.43
2019-04-14T02:17:07.424Z,39.53
2019-04-14T02:19:37.177Z,42.03
2019-04-14T02:22:07.355Z,42.70
2019-04-14T02:24:37.489Z,43.90
2019-04-14T02:27:07.643Z,40.17
2019-04-14T02:29:45.033Z,42.70
2019-04-14T02:32:43.346Z,41.30
2019-04-14T02:37:54.460Z,41.23
2019-04-14T02:40:31.208Z,39.03
2019-04-14T02:45:35.191Z,38.07
2019-04-14T02:48:03.586Z,38.23
2019-04-14T02:50:43.653Z,36.10
2019-04-14T02:53:00.953Z,36.53
2019-04-14T02:55:21.595Z,35.80
2019-04-14T02:58:01.741Z,34.00
2019-04-14T03:00:52.614Z,34.17
2019-04-14T03:03:16.869Z,34.43
2019-04-14T03:05:37.588Z,32.30
2019-04-14T03:08:08.311Z,33.07
2019-04-14T03:10:42.147Z,34.00
2019-04-14T03:13:13.419Z,33.00
2019-04-14T03:15:39.686Z,32.60
2019-04-14T03:18:42.813Z,34.93
2019-04-14T03:21:29.936Z,30.97
2019-04-14T03:24:12.084Z,29.60
2019-04-14T03:26:41.619Z,32.97
2019-04-14T03:29:20.871Z,31.17
2019-04-14T03:32:15.252Z,30.63
2019-04-14T03:37:31.492Z,30.47
2019-04-14T03:39:46.591Z,29.77
2019-04-14T03:42:08.652Z,29.37
2019-04-14T03:44:43.437Z,27.87
2019-04-14T03:47:13.537Z,27.30
2019-04-14T03:49:52.688Z,27.10
2019-04-14T03:52:19.504Z,28.30
2019-04-14T03:54:42.600Z,26.57
2019-04-14T03:56:53.363Z,31.70
2019-04-14T03:59:26.344Z,26.43
2019-04-14T04:01:56.449Z,27.00
2019-04-14T04:04:25.764Z,30.33
2019-04-14T04:06:55.405Z,28.37
2019-04-14T04:09:32.103Z,29.97
2019-04-14T04:12:01.417Z,27.17
2019-04-14T04:14:31.251Z,26.70
2019-04-14T04:17:31.879Z,26.43
2019-04-14T04:20:09.327Z,26.27
2019-04-14T04:22:58.713Z,25.47
2019-04-14T04:25:42.197Z,24.90
2019-04-14T04:28:26.290Z,26.17
2019-04-14T04:31:13.468Z,31.30
2019-04-14T04:33:56.327Z,26.63
2019-04-14T04:36:31.288Z,24.17
2019-04-14T04:39:08.320Z,24.70
2019-04-14T04:41:38.538Z,25.43
2019-04-14T04:44:07.748Z,23.73
2019-04-14T04:46:37.309Z,24.97
2019-04-14T04:49:14.446Z,24.87
2019-04-14T04:51:37.844Z,25.67
2019-04-14T04:54:08.085Z,24.10
2019-04-14T04:56:38.347Z,25.70
2019-04-14T04:59:07.590Z,24.90
2019-04-14T05:01:36.607Z,28.00
2019-04-14T05:04:06.780Z,26.20
2019-04-14T05:07:07.920Z,24.77
2019-04-14T05:10:15.303Z,24.10
2019-04-14T05:13:02.959Z,23.83
2019-04-14T05:15:44.820Z,22.67
2019-04-14T05:18:22.237Z,23.70
2019-04-14T05:20:51.515Z,21.73
2019-04-14T05:23:23.515Z,22.77
2019-04-14T05:25:53.759Z,22.80
2019-04-14T05:28:23.007Z,22.03
2019-04-14T05:30:52.549Z,21.67
2019-04-14T05:33:22.837Z,21.87
2019-04-14T05:35:55.287Z,22.67
2019-04-14T05:38:25.773Z,22.63
2019-04-14T05:40:56.247Z,22.97
2019-04-14T05:43:35.999Z,23.20
2019-04-14T05:45:56.663Z,22.13
2019-04-14T05:48:27.131Z,22.07
2019-04-14T05:50:57.647Z,23.43
2019-04-14T05:53:26.920Z,23.77
2019-04-14T05:55:56.739Z,23.67
2019-04-14T05:58:25.863Z,22.50
2019-04-14T06:00:55.803Z,21.70
2019-04-14T06:03:25.686Z,22.53
2019-04-14T06:05:58.188Z,20.10
2019-04-14T06:08:27.304Z,22.40
2019-04-14T06:10:56.300Z,24.00
2019-04-14T06:13:25.358Z,21.30
2019-04-14T06:15:54.378Z,20.13
2019-04-14T06:18:23.663Z,21.57
2019-04-14T06:20:52.704Z,21.10
2019-04-14T06:23:21.836Z,21.40
2019-04-14T06:25:51.976Z,20.93
2019-04-14T06:28:21.075Z,27.93
2019-04-14T06:31:17.191Z,21.57
2019-04-14T06:34:07.961Z,20.80
2019-04-14T06:36:56.267Z,21.23
2019-04-14T06:39:28.029Z,19.00
2019-04-14T06:41:58.103Z,20.73
2019-04-14T06:44:27.062Z,19.30
2019-04-14T06:46:56.144Z,18.97
2019-04-14T06:49:25.245Z,24.70
2019-04-14T06:51:54.653Z,20.73
2019-04-14T06:54:23.691Z,18.67
2019-04-14T06:56:54.243Z,18.50
2019-04-14T06:59:25.172Z,25.60
2019-04-14T07:01:54.332Z,20.67
2019-04-14T07:04:23.351Z,20.50
2019-04-14T07:06:52.406Z,17.20
2019-04-14T07:09:21.456Z,19.20
2019-04-14T07:11:54.211Z,19.43
2019-04-14T07:14:23.202Z,18.77
2019-04-14T07:16:52.371Z,21.97
2019-04-14T07:19:21.407Z,20.13
2019-04-14T07:21:50.401Z,17.03
2019-04-14T07:24:19.449Z,17.90
2019-04-14T07:26:49.672Z,16.37
2019-04-14T07:29:18.755Z,18.13
2019-04-14T07:32:06.510Z,17.27
2019-04-14T07:35:03.431Z,17.20
2019-04-14T07:38:09.705Z,17.27
2019-04-14T07:41:00.478Z,33.70
2019-04-14T07:44:05.103Z,17.73
2019-04-14T07:46:43.695Z,17.80
2019-04-14T07:49:48.437Z,20.43
2019-04-14T07:52:28.306Z,21.30
2019-04-14T07:55:19.243Z,19.87
2019-04-14T07:58:01.353Z,22.93
2019-04-14T08:00:36.481Z,19.60
2019-04-14T08:03:26.988Z,17.53
2019-04-14T08:05:56.024Z,17.83
2019-04-14T08:08:25.053Z,16.73
2019-04-14T08:10:54.209Z,16.70
2019-04-14T08:13:23.281Z,17.30
2019-04-14T08:15:52.347Z,16.17
2019-04-14T08:18:24.453Z,17.03
2019-04-14T08:20:53.464Z,21.80
2019-04-14T08:23:22.577Z,17.13
2019-04-14T08:25:53.111Z,16.37
2019-04-14T08:28:23.362Z,17.97
2019-04-14T08:30:52.460Z,16.60
2019-04-14T08:33:23.287Z,17.07
2019-04-14T08:35:53.630Z,20.50
2019-04-14T08:38:22.747Z,18.63
2019-04-14T08:40:52.051Z,25.47
2019-04-14T08:43:49.143Z,19.23
2019-04-14T08:46:34.214Z,19.03
2019-04-14T08:49:24.526Z,37.57
2019-04-14T08:52:14.236Z,33.63
2019-04-14T08:55:02.386Z,44.37
2019-04-14T08:57:46.373Z,27.23
2019-04-14T09:00:31.174Z,17.77
2019-04-14T09:03:24.904Z,16.77
2019-04-14T09:06:15.904Z,16.73
2019-04-14T09:09:07.475Z,19.17
2019-04-14T09:11:56.769Z,18.63
2019-04-14T09:14:25.821Z,16.80
2019-04-14T09:16:54.916Z,16.53
2019-04-14T09:19:23.976Z,16.37
2019-04-14T09:21:53.028Z,17.20
2019-04-14T09:24:22.058Z,18.10
2019-04-14T09:26:51.267Z,17.93
2019-04-14T09:29:20.503Z,16.77
2019-04-14T09:31:49.513Z,18.90
2019-04-14T09:34:18.638Z,17.53
2019-04-14T09:36:50.512Z,19.70
2019-04-14T09:39:19.514Z,17.07
2019-04-14T09:41:55.944Z,19.47
2019-04-14T09:44:27.867Z,19.30
2019-04-14T09:46:58.016Z,18.67
2019-04-14T09:49:27.100Z,19.97
2019-04-14T09:51:57.341Z,18.27
2019-04-14T09:54:27.691Z,20.03
2019-04-14T09:56:56.698Z,17.23
2019-04-14T09:59:25.709Z,18.60
2019-04-14T10:01:55.007Z,17.60
2019-04-14T10:04:24.161Z,23.47
2019-04-14T10:06:53.244Z,26.43
2019-04-14T10:09:22.385Z,25.77
2019-04-14T10:11:56.039Z,24.43
2019-04-14T10:14:22.068Z,17.50
2019-04-14T10:16:51.239Z,17.20
2019-04-14T10:19:20.262Z,21.87
2019-04-14T10:21:50.893Z,17.30
2019-04-14T10:24:19.944Z,15.20
2019-04-14T10:26:51.903Z,18.13
2019-04-14T10:29:22.485Z,16.60
2019-04-14T10:31:51.812Z,16.90
2019-04-14T10:34:20.873Z,17.13
2019-04-14T10:36:49.980Z,16.70
2019-04-14T10:39:19.326Z,17.33
2019-04-14T10:41:48.400Z,15.50
2019-04-14T10:44:17.572Z,15.50
2019-04-14T10:46:46.638Z,14.03
2019-04-14T10:49:15.814Z,13.20
2019-04-14T10:51:44.791Z,15.13
2019-04-14T10:54:15.906Z,15.30
2019-04-14T10:56:45.001Z,14.47
2019-04-14T10:59:15.157Z,14.87
2019-04-14T11:01:46.963Z,15.13
2019-04-14T11:04:17.142Z,16.27
2019-04-14T11:07:00.257Z,17.13
2019-04-14T11:09:32.319Z,14.80
2019-04-14T11:12:02.997Z,15.20
2019-04-14T11:14:36.206Z,13.90
2019-04-14T11:17:05.328Z,13.03
2019-04-14T11:19:36.665Z,13.07
2019-04-14T11:22:07.597Z,13.60
2019-04-14T11:24:38.039Z,13.77
2019-04-14T11:27:07.290Z,12.87
2019-04-14T11:29:36.336Z,13.47
2019-04-14T11:32:18.928Z,14.00
2019-04-14T11:34:57.326Z,14.20
2019-04-14T11:37:44.246Z,13.97
2019-04-14T11:40:15.895Z,13.90
2019-04-14T11:42:52.328Z,12.83
2019-04-14T11:45:16.691Z,14.50
2019-04-14T11:47:45.888Z,14.10
2019-04-14T11:50:18.788Z,13.30
2019-04-14T11:52:51.560Z,13.43
2019-04-14T11:55:20.541Z,13.70
2019-04-14T11:57:49.547Z,13.50
2019-04-14T12:00:52.874Z,14.80
2019-04-14T12:03:46.977Z,14.90
2019-04-14T12:06:43.483Z,13.53
2019-04-14T12:09:31.359Z,14.03
2019-04-14T12:12:08.057Z,14.73
2019-04-14T12:14:37.297Z,13.53
2019-04-14T12:17:09.187Z,13.33
2019-04-14T12:19:38.294Z,12.80
2019-04-14T12:22:08.527Z,12.43
2019-04-14T12:24:38.113Z,12.03
2019-04-14T12:27:08.981Z,12.23
2019-04-14T12:29:41.224Z,12.90
2019-04-14T12:32:10.751Z,11.93
2019-04-14T12:34:40.204Z,15.17
2019-04-14T12:37:09.383Z,18.03
2019-04-14T12:39:39.843Z,14.40
2019-04-14T12:42:36.900Z,12.57
2019-04-14T12:45:31.553Z,12.30
2019-04-14T12:48:29.500Z,16.57
2019-04-14T12:51:03.352Z,14.73
2019-04-14T12:53:32.460Z,10.53
2019-04-14T12:56:01.452Z,13.97
2019-04-14T12:58:55.064Z,12.60
2019-04-14T13:01:24.665Z,10.13
2019-04-14T13:03:53.648Z,13.03
2019-04-14T13:06:22.759Z,10.40
2019-04-14T13:08:51.794Z,11.77
2019-04-14T13:11:20.803Z,11.23
2019-04-14T13:13:49.829Z,13.00
2019-04-14T13:16:19.408Z,12.60
2019-04-14T13:18:48.424Z,11.90
2019-04-14T13:21:17.530Z,15.80
2019-04-14T13:23:48.159Z,12.70
2019-04-14T13:26:17.194Z,11.13
2019-04-14T13:28:46.238Z,11.10
2019-04-14T13:31:15.409Z,10.90
2019-04-14T13:33:44.421Z,10.60
2019-04-14T13:36:13.475Z,11.40
2019-04-14T13:38:42.559Z,12.67
2019-04-14T13:41:11.621Z,14.53
2019-04-14T13:43:40.698Z,11.63
2019-04-14T13:46:09.928Z,11.50
2019-04-14T13:48:38.991Z,13.23
2019-04-14T13:51:08.044Z,9.87
2019-04-14T13:53:37.118Z,11.53
2019-04-14T13:56:06.173Z,10.00
2019-04-14T13:58:39.065Z,9.83
2019-04-14T14:01:05.961Z,9.93
2019-04-14T14:03:38.094Z,10.33
2019-04-14T14:06:07.103Z,10.97
2019-04-14T14:08:36.173Z,10.77
2019-04-14T14:11:37.499Z,12.00
2019-04-14T14:14:12.787Z,11.63
2019-04-14T14:16:57.135Z,12.07
2019-04-14T14:19:30.430Z,9.87
2019-04-14T14:22:10.209Z,11.37
2019-04-14T14:24:47.235Z,9.20
2019-04-14T14:27:16.296Z,9.17
2019-04-14T14:29:45.411Z,9.60
2019-04-14T14:32:21.202Z,9.17
2019-04-14T14:34:50.216Z,9.40
2019-04-14T14:37:19.220Z,10.33
2019-04-14T14:39:48.257Z,11.80
2019-04-14T14:42:17.354Z,9.93
2019-04-14T14:44:51.958Z,9.73
2019-04-14T14:47:23.524Z,9.17
2019-04-14T14:50:24.709Z,9.00
2019-04-14T14:53:11.506Z,9.73
2019-04-14T14:55:38.820Z,8.57
2019-04-14T14:58:07.816Z,8.67
2019-04-14T15:00:36.873Z,9.50
2019-04-14T15:03:05.861Z,8.93
2019-04-14T15:05:34.858Z,8.23
2019-04-14T15:08:04.013Z,8.70
2019-04-14T15:10:33.015Z,8.60
2019-04-14T15:13:02.019Z,8.40
2019-04-14T15:15:31.029Z,9.17
2019-04-14T15:18:01.176Z,9.23
2019-04-14T15:20:33.516Z,8.73
2019-04-14T15:23:02.511Z,8.97
2019-04-14T15:25:31.643Z,9.33
2019-04-14T15:28:00.698Z,10.57
2019-04-14T15:30:29.868Z,9.93
2019-04-14T15:32:58.868Z,8.60
2019-04-14T15:35:27.915Z,9.40
2019-04-14T15:37:56.929Z,8.63
2019-04-14T15:40:26.036Z,8.20
2019-04-14T15:42:55.171Z,8.97
2019-04-14T15:45:24.212Z,9.27
2019-04-14T15:47:53.423Z,7.30
2019-04-14T15:50:22.517Z,8.00
2019-04-14T15:52:51.518Z,7.20
2019-04-14T15:55:23.555Z,7.83
2019-04-14T15:58:17.652Z,7.97
2019-04-14T16:01:17.428Z,8.53
2019-04-14T16:04:20.622Z,8.83
2019-04-14T16:07:09.337Z,7.97
2019-04-14T16:09:46.732Z,8.50
2019-04-14T16:12:37.734Z,7.40
2019-04-14T16:15:22.297Z,7.90
2019-04-14T16:18:08.531Z,8.10
2019-04-14T16:20:39.299Z,8.70
2019-04-14T16:23:08.489Z,8.50
2019-04-14T16:25:56.698Z,7.33
2019-04-14T16:28:31.557Z,7.47
2019-04-14T16:31:19.676Z,7.77
2019-04-14T16:34:03.050Z,9.23
2019-04-14T16:36:34.907Z,7.77
2019-04-14T16:39:06.601Z,7.73
2019-04-14T16:41:35.569Z,9.00
2019-04-14T16:44:04.985Z,8.23
2019-04-14T16:46:36.414Z,8.80
2019-04-14T16:49:05.434Z,8.43
2019-04-14T16:51:40.365Z,8.97
2019-04-14T16:54:34.508Z,7.33
2019-04-14T16:57:31.433Z,8.90
2019-04-14T17:00:00.474Z,8.50
2019-04-14T17:02:29.462Z,7.07
2019-04-14T17:04:58.788Z,10.30
2019-04-14T17:07:27.734Z,10.53
2019-04-14T17:09:56.768Z,10.10
2019-04-14T17:12:28.637Z,8.67
2019-04-14T17:15:15.437Z,8.47
2019-04-14T17:18:05.659Z,10.83
2019-04-14T17:20:51.105Z,10.70
2019-04-14T17:23:43.872Z,14.77
2019-04-14T17:26:38.284Z,18.20
2019-04-14T17:29:31.985Z,11.27
2019-04-14T17:32:07.738Z,11.03
2019-04-14T17:34:42.486Z,12.00
2019-04-14T17:37:30.581Z,24.13
2019-04-14T17:40:06.061Z,16.33
2019-04-14T17:42:49.307Z,10.43
2019-04-14T17:45:37.357Z,20.03
2019-04-14T17:48:20.400Z,13.50
2019-04-14T17:51:03.313Z,11.93
2019-04-14T17:54:02.689Z,14.77
2019-04-14T17:56:40.767Z,13.73
2019-04-14T17:59:35.136Z,12.07
2019-04-14T18:02:15.396Z,12.67
2019-04-14T18:05:13.156Z,12.50
2019-04-14T18:07:49.279Z,10.30
2019-04-14T18:10:32.465Z,10.10
2019-04-14T18:13:13.620Z,12.77
2019-04-14T18:16:04.364Z,13.03
2019-04-14T18:18:51.162Z,10.30
2019-04-14T18:21:20.253Z,16.53
2019-04-14T18:23:49.331Z,13.67
2019-04-14T18:26:18.522Z,9.07
2019-04-14T18:29:16.802Z,9.23
2019-04-14T18:31:55.061Z,7.93
2019-04-14T18:34:45.763Z,10.17
2019-04-14T18:37:36.756Z,9.20
2019-04-14T18:40:19.016Z,10.03
2019-04-14T18:43:08.562Z,8.10
2019-04-14T18:45:43.475Z,9.13
2019-04-14T18:48:34.241Z,10.90
2019-04-14T18:51:22.337Z,10.37
2019-04-14T18:54:01.709Z,12.40
2019-04-14T18:57:04.547Z,10.87
2019-04-14T18:59:52.838Z,8.93
2019-04-14T19:02:22.360Z,9.13
2019-04-14T19:04:54.251Z,11.53
2019-04-14T19:07:23.414Z,10.23
2019-04-14T19:09:56.949Z,9.17
2019-04-14T19:12:48.214Z,9.57
2019-04-14T19:15:41.131Z,7.37
2019-04-14T19:18:25.743Z,6.83
2019-04-14T19:20:59.481Z,8.53
2019-04-14T19:23:30.687Z,6.77
2019-04-14T19:25:59.861Z,7.43
2019-04-14T19:28:30.480Z,7.00
2019-04-14T19:31:02.094Z,7.57
2019-04-14T19:33:33.166Z,8.57
2019-04-14T19:36:07.574Z,8.67
2019-04-14T19:38:36.650Z,9.87
2019-04-14T19:41:06.968Z,8.20
2019-04-14T19:43:35.974Z,7.43
2019-04-14T19:46:05.163Z,7.93
2019-04-14T19:48:34.218Z,7.50
2019-04-14T19:51:03.233Z,7.80
2019-04-14T19:53:32.345Z,8.77
2019-04-14T19:56:04.676Z,9.40
2019-04-14T19:58:38.184Z,9.00
2019-04-14T20:01:07.305Z,8.83
2019-04-14T20:03:36.471Z,9.00
2019-04-14T20:06:05.753Z,8.93
2019-04-14T20:08:34.772Z,10.03
2019-04-14T20:11:03.851Z,8.60
2019-04-14T20:13:41.803Z,9.37
2019-04-14T20:16:32.672Z,9.43
2019-04-14T20:19:24.646Z,8.23
2019-04-14T20:22:21.629Z,8.83
2019-04-14T20:25:01.025Z,11.37
2019-04-14T20:27:36.512Z,11.83
2019-04-14T20:30:12.516Z,20.30
2019-04-14T20:32:45.090Z,10.50
2019-04-14T20:35:14.876Z,9.90
2019-04-14T20:37:43.938Z,18.13
2019-04-14T20:40:12.961Z,19.47
2019-04-14T20:42:43.072Z,23.00
2019-04-14T20:45:13.507Z,19.33
2019-04-14T20:47:42.503Z,15.53
2019-04-14T20:50:11.725Z,21.27
2019-04-14T20:52:40.748Z,19.70
2019-04-14T20:55:09.841Z,20.50
2019-04-14T20:57:38.892Z,28.40
2019-04-14T21:00:08.428Z,25.87
2019-04-14T21:03:02.317Z,40.27
2019-04-14T21:05:52.568Z,28.43
2019-04-14T21:08:49.473Z,37.63
2019-04-14T21:11:28.037Z,24.13
2019-04-14T21:14:06.889Z,33.73
2019-04-14T21:16:50.190Z,26.10
2019-04-14T21:19:26.386Z,41.90
2019-04-14T21:22:14.430Z,45.03
2019-04-14T21:25:02.914Z,54.00
2019-04-14T21:27:51.125Z,53.70
2019-04-14T21:30:39.067Z,43.40
2019-04-14T21:33:32.854Z,50.23
2019-04-14T21:36:08.885Z,51.10
2019-04-14T21:38:52.820Z,36.47
2019-04-14T21:41:27.588Z,42.30
2019-04-14T21:43:56.617Z,44.97
2019-04-14T21:46:27.275Z,51.03
2019-04-14T21:48:56.301Z,26.97
2019-04-14T21:51:43.190Z,25.33
2019-04-14T21:54:12.137Z,46.90
2019-04-14T21:56:41.321Z,41.20
2019-04-14T21:59:16.839Z,27.37
2019-04-14T22:02:03.258Z,37.57
2019-04-14T22:04:50.118Z,32.97
2019-04-14T22:07:46.963Z,48.77
2019-04-14T22:10:40.910Z,40.90
2019-04-14T22:13:10.073Z,27.17
2019-04-14T22:15:39.181Z,51.77
2019-04-14T22:18:08.172Z,37.47
2019-04-14T22:20:37.139Z,31.53
2019-04-14T22:23:09.241Z,28.20
2019-04-14T22:25:38.222Z,28.00
2019-04-14T22:28:07.227Z,28.13
2019-04-14T22:30:36.267Z,21.90
2019-04-14T22:33:05.539Z,19.40
2019-04-14T22:35:34.589Z,12.70
2019-04-14T22:38:03.746Z,14.30
2019-04-14T22:40:32.746Z,20.43
2019-04-14T22:43:01.697Z,19.93
2019-04-14T22:45:30.751Z,13.50
2019-04-14T22:48:01.891Z,16.60
2019-04-14T22:50:30.873Z,19.73
2019-04-14T22:52:59.862Z,17.33
2019-04-14T22:55:28.785Z,18.70
2019-04-14T22:57:58.088Z,27.27
2019-04-14T23:00:40.200Z,13.07
2019-04-14T23:03:31.274Z,15.07
2019-04-14T23:06:05.684Z,12.27
2019-04-14T23:08:45.493Z,15.17
2019-04-14T23:11:41.560Z,15.13
2019-04-14T23:14:19.810Z,16.40
2019-04-14T23:17:19.440Z,12.73
2019-04-14T23:19:54.055Z,14.07
2019-04-14T23:22:27.881Z,14.23
2019-04-14T23:24:56.836Z,12.17
2019-04-14T23:27:25.779Z,11.43
2019-04-14T23:29:54.917Z,17.77
2019-04-14T23:32:23.955Z,16.70
2019-04-14T23:34:52.921Z,15.07
2019-04-14T23:37:21.926Z,14.93
2019-04-14T23:39:50.871Z,12.73
2019-04-14T23:42:19.937Z,14.47
2019-04-14T23:44:48.924Z,12.43
2019-04-14T23:47:17.936Z,14.77
2019-04-14T23:49:46.889Z,12.30
2019-04-14T23:52:15.952Z,13.47
2019-04-14T23:54:47.972Z,14.33
2019-04-14T23:57:17.431Z,13.47
2019-04-14T23:59:46.453Z,10.30
